createdAt,value
2019-05-21T00:00:37.277Z,16.02
2019-05-21T00:03:08.778Z,15.80
2019-05-21T00:05:45.126Z,15.28
2019-05-21T00:08:20.585Z,15.26
2019-05-21T00:10:52.808Z,15.88
2019-05-21T00:13:26.224Z,16.13
2019-05-21T00:16:00.205Z,15.76
2019-05-21T00:18:35.370Z,14.06
2019-05-21T00:21:08.945Z,13.33
2019-05-21T00:23:42.152Z,12.97
2019-05-21T00:26:17.129Z,13.13
2019-05-21T00:29:28.759Z,13.81
2019-05-21T00:32:37.619Z,14.85
2019-05-21T00:35:45.664Z,14.37
2019-05-21T00:38:54.140Z,13.78
2019-05-21T00:41:59.830Z,13.35
2019-05-21T00:44:39.217Z,13.14
2019-05-21T00:47:13.516Z,13.22
2019-05-21T00:49:46.431Z,13.27
2019-05-21T00:52:18.502Z,12.95
2019-05-21T00:54:55.327Z,13.13
2019-05-21T00:57:27.326Z,13.39
2019-05-21T01:00:01.345Z,14.40
2019-05-21T01:02:42.426Z,14.96
2019-05-21T01:05:16.967Z,14.71
2019-05-21T01:07:48.397Z,14.31
2019-05-21T01:10:22.351Z,14.53
2019-05-21T01:12:55.770Z,14.49
2019-05-21T01:15:27.733Z,14.41
2019-05-21T01:18:01.799Z,14.19
2019-05-21T01:20:33.482Z,14.00
2019-05-21T01:23:07.709Z,14.52
2019-05-21T01:25:40.510Z,15.08
2019-05-21T01:28:12.624Z,14.99
2019-05-21T01:30:45.608Z,13.82
2019-05-21T01:33:18.453Z,13.37
2019-05-21T01:35:51.581Z,13.44
2019-05-21T01:38:23.711Z,13.91
2019-05-21T01:40:58.690Z,14.16
2019-05-21T01:43:32.455Z,14.97
2019-05-21T01:46:06.629Z,15.35
2019-05-21T01:48:39.656Z,15.05
2019-05-21T01:51:15.419Z,14.55
2019-05-21T01:53:49.599Z,14.14
2019-05-21T01:56:21.644Z,13.90
2019-05-21T01:58:55.640Z,13.73
2019-05-21T02:01:29.696Z,13.62
2019-05-21T02:04:03.897Z,13.59
2019-05-21T02:06:38.856Z,13.50
2019-05-21T02:09:13.016Z,13.34
2019-05-21T02:11:48.555Z,13.37
2019-05-21T02:14:21.879Z,13.79
2019-05-21T02:16:54.779Z,12.85
2019-05-21T02:19:33.158Z,12.74
2019-05-21T02:22:06.089Z,13.28
2019-05-21T02:24:42.877Z,14.18
2019-05-21T02:27:14.751Z,13.09
2019-05-21T02:29:46.747Z,13.30
2019-05-21T02:32:20.976Z,14.15
2019-05-21T02:34:53.997Z,13.61
2019-05-21T02:37:27.900Z,12.68
2019-05-21T02:40:13.524Z,12.36
2019-05-21T02:42:45.061Z,12.74
2019-05-21T02:45:18.834Z,12.30
2019-05-21T02:47:50.982Z,11.99
2019-05-21T02:50:27.364Z,12.87
2019-05-21T02:52:59.934Z,13.62
2019-05-21T02:55:33.011Z,13.82
2019-05-21T02:58:04.289Z,13.95
2019-05-21T03:00:56.633Z,13.98
2019-05-21T03:03:30.840Z,13.63
2019-05-21T03:06:13.970Z,13.39
2019-05-21T03:08:36.361Z,13.03
2019-05-21T03:11:09.168Z,12.60
2019-05-21T03:13:41.979Z,12.64
2019-05-21T03:16:14.979Z,12.77
2019-05-21T03:18:48.052Z,12.88
2019-05-21T03:21:21.377Z,13.11
2019-05-21T03:23:54.220Z,12.39
2019-05-21T03:26:28.043Z,13.10
2019-05-21T03:29:00.224Z,13.10
2019-05-21T03:31:34.177Z,13.34
2019-05-21T03:34:06.174Z,13.28
2019-05-21T03:36:37.339Z,13.76
2019-05-21T03:39:09.056Z,14.35
2019-05-21T03:41:43.137Z,13.99
2019-05-21T03:44:17.246Z,13.97
2019-05-21T03:46:52.855Z,14.01
2019-05-21T03:49:25.780Z,14.29
2019-05-21T03:51:58.154Z,14.41
2019-05-21T03:54:30.156Z,14.48
2019-05-21T03:57:02.216Z,13.96
2019-05-21T03:59:35.286Z,13.63
2019-05-21T04:02:10.292Z,14.04
2019-05-21T04:04:41.514Z,14.60
2019-05-21T04:07:15.483Z,14.76
2019-05-21T04:09:49.635Z,14.99
2019-05-21T04:12:21.349Z,15.22
2019-05-21T04:14:58.482Z,15.29
2019-05-21T04:17:51.975Z,15.10
2019-05-21T04:20:25.509Z,15.47
2019-05-21T04:22:58.412Z,15.63
2019-05-21T04:25:31.434Z,16.12
2019-05-21T04:28:04.379Z,15.90
2019-05-21T04:30:36.511Z,15.37
2019-05-21T04:33:07.914Z,15.56
2019-05-21T04:35:40.135Z,15.30
2019-05-21T04:38:12.396Z,14.86
2019-05-21T04:40:45.385Z,15.15
2019-05-21T04:43:18.685Z,15.32
2019-05-21T04:45:50.391Z,15.51
2019-05-21T04:48:24.410Z,15.48
2019-05-21T04:50:56.698Z,15.50
2019-05-21T04:53:31.843Z,15.81
2019-05-21T04:56:04.371Z,16.00
2019-05-21T04:58:36.662Z,15.62
2019-05-21T05:01:08.981Z,15.61
2019-05-21T05:03:42.539Z,15.87
2019-05-21T05:06:16.616Z,16.09
2019-05-21T05:08:48.518Z,16.26
2019-05-21T05:11:21.596Z,16.53
2019-05-21T05:13:54.480Z,16.57
2019-05-21T05:16:27.807Z,15.78
2019-05-21T05:19:00.470Z,15.92
2019-05-21T05:21:33.807Z,16.28
2019-05-21T05:24:09.155Z,16.74
2019-05-21T05:26:43.557Z,17.24
2019-05-21T05:29:16.732Z,17.54
2019-05-21T05:31:48.781Z,17.54
2019-05-21T05:34:24.052Z,16.98
2019-05-21T05:36:56.607Z,16.33
2019-05-21T05:39:29.367Z,16.31
2019-05-21T05:42:02.158Z,16.76
2019-05-21T05:44:35.853Z,16.96
2019-05-21T05:47:09.286Z,16.96
2019-05-21T05:49:45.456Z,16.55
2019-05-21T05:52:21.101Z,16.26
2019-05-21T05:54:53.639Z,16.39
2019-05-21T05:57:24.866Z,16.55
2019-05-21T05:59:56.842Z,16.59
2019-05-21T06:02:34.773Z,16.17
2019-05-21T06:05:16.727Z,16.42
2019-05-21T06:07:59.232Z,15.91
2019-05-21T06:10:24.897Z,16.59
2019-05-21T06:12:59.122Z,16.98
2019-05-21T06:15:33.678Z,17.39
2019-05-21T06:18:07.096Z,17.54
2019-05-21T06:20:38.597Z,17.26
2019-05-21T06:23:12.065Z,17.83
2019-05-21T06:25:46.140Z,17.93
2019-05-21T06:28:19.191Z,17.56
2019-05-21T06:31:26.756Z,17.57
2019-05-21T06:34:04.775Z,17.15
2019-05-21T06:36:38.427Z,17.03
2019-05-21T06:39:10.015Z,17.29
2019-05-21T06:41:42.127Z,17.72
2019-05-21T06:44:16.421Z,18.07
2019-05-21T06:46:49.166Z,17.90
2019-05-21T06:49:23.425Z,18.43
2019-05-21T06:51:56.990Z,18.59
2019-05-21T06:54:28.215Z,18.52
2019-05-21T06:57:01.030Z,17.94
2019-05-21T06:59:32.246Z,17.98
2019-05-21T07:02:07.716Z,18.45
2019-05-21T07:04:39.239Z,18.87
2019-05-21T07:07:12.312Z,19.09
2019-05-21T07:09:47.887Z,18.89
2019-05-21T07:12:19.269Z,18.66
2019-05-21T07:14:51.310Z,18.58
2019-05-21T07:17:25.353Z,18.95
2019-05-21T07:19:58.173Z,18.81
2019-05-21T07:22:31.190Z,19.43
2019-05-21T07:25:17.163Z,19.06
2019-05-21T07:27:50.357Z,19.10
2019-05-21T07:30:23.567Z,18.82
2019-05-21T07:32:57.279Z,19.00
2019-05-21T07:35:30.668Z,19.96
2019-05-21T07:38:04.436Z,17.44
2019-05-21T07:40:37.224Z,21.02
2019-05-21T07:43:10.536Z,21.00
2019-05-21T07:45:42.687Z,20.58
2019-05-21T07:48:16.309Z,20.87
2019-05-21T07:50:48.458Z,21.16
2019-05-21T07:53:21.474Z,20.49
2019-05-21T07:55:54.440Z,20.18
2019-05-21T07:58:27.488Z,20.21
2019-05-21T08:01:01.584Z,19.62
2019-05-21T08:03:35.040Z,19.60
2019-05-21T08:06:09.609Z,19.89
2019-05-21T08:08:42.551Z,19.56
2019-05-21T08:11:15.414Z,19.46
2019-05-21T08:13:49.453Z,18.62
2019-05-21T08:16:23.370Z,19.14
2019-05-21T08:18:57.316Z,19.36
2019-05-21T08:21:30.428Z,19.02
2019-05-21T08:24:02.543Z,19.02
2019-05-21T08:26:38.261Z,19.42
2019-05-21T08:29:09.701Z,18.48
2019-05-21T08:31:42.420Z,19.32
2019-05-21T08:34:16.427Z,18.77
2019-05-21T08:36:49.516Z,18.07
2019-05-21T08:39:28.982Z,18.50
2019-05-21T08:42:00.498Z,19.31
2019-05-21T08:44:32.578Z,19.10
2019-05-21T08:47:05.870Z,17.82
2019-05-21T08:49:38.969Z,17.98
2019-05-21T08:52:10.342Z,17.35
2019-05-21T08:54:51.017Z,16.36
2019-05-21T08:57:26.007Z,15.86
2019-05-21T08:59:58.885Z,15.67
2019-05-21T09:02:38.683Z,15.87
2019-05-21T09:05:16.120Z,16.01
2019-05-21T09:07:53.376Z,16.10
2019-05-21T09:10:26.039Z,16.30
2019-05-21T09:12:58.754Z,16.23
2019-05-21T09:15:30.818Z,16.71
2019-05-21T09:18:03.806Z,17.30
2019-05-21T09:20:37.873Z,18.67
2019-05-21T09:23:09.473Z,17.93
2019-05-21T09:25:42.798Z,17.43
2019-05-21T09:28:15.873Z,17.37
2019-05-21T09:30:48.250Z,17.03
2019-05-21T09:33:21.816Z,16.64
2019-05-21T09:35:54.785Z,17.00
2019-05-21T09:38:29.676Z,16.87
2019-05-21T09:41:03.920Z,16.54
2019-05-21T09:43:36.808Z,16.67
2019-05-21T09:46:08.826Z,17.85
2019-05-21T09:48:44.769Z,17.33
2019-05-21T09:51:20.860Z,17.85
2019-05-21T09:53:54.002Z,16.85
2019-05-21T09:56:35.626Z,17.14
2019-05-21T09:59:35.167Z,16.80
2019-05-21T10:02:11.408Z,15.93
2019-05-21T10:04:43.260Z,16.48
2019-05-21T10:07:16.116Z,16.86
2019-05-21T10:09:48.181Z,16.52
2019-05-21T10:12:22.039Z,16.52
2019-05-21T10:14:55.025Z,16.52
2019-05-21T10:17:27.992Z,16.53
2019-05-21T10:20:01.001Z,16.37
2019-05-21T10:22:43.573Z,16.49
2019-05-21T10:25:16.811Z,16.41
2019-05-21T10:27:48.278Z,16.63
2019-05-21T10:30:28.273Z,16.36
2019-05-21T10:33:02.419Z,16.27
2019-05-21T10:35:34.849Z,16.38
2019-05-21T10:38:07.218Z,16.73
2019-05-21T10:40:40.221Z,16.42
2019-05-21T10:43:13.305Z,16.50
2019-05-21T10:45:47.298Z,16.48
2019-05-21T10:48:20.807Z,16.63
2019-05-21T10:50:54.217Z,16.80
2019-05-21T10:53:29.795Z,17.32
2019-05-21T10:56:01.246Z,17.16
2019-05-21T10:58:34.224Z,17.60
2019-05-21T11:01:19.408Z,17.67
2019-05-21T11:04:10.013Z,17.64
2019-05-21T11:06:45.842Z,17.58
2019-05-21T11:09:22.748Z,17.10
2019-05-21T11:11:55.255Z,17.67
2019-05-21T11:14:30.518Z,17.67
2019-05-21T11:17:08.007Z,17.78
2019-05-21T11:19:39.236Z,17.49
2019-05-21T11:22:14.313Z,17.67
2019-05-21T11:24:52.045Z,17.36
2019-05-21T11:27:25.409Z,17.93
2019-05-21T11:29:59.018Z,17.65
2019-05-21T11:32:33.189Z,17.70
2019-05-21T11:35:18.594Z,17.39
2019-05-21T11:37:52.428Z,17.64
2019-05-21T11:40:26.609Z,17.28
2019-05-21T11:43:01.272Z,17.94
2019-05-21T11:45:34.392Z,18.12
2019-05-21T11:48:07.548Z,18.30
2019-05-21T11:50:41.308Z,17.97
2019-05-21T11:53:15.208Z,18.11
2019-05-21T11:55:49.493Z,18.12
2019-05-21T11:58:21.660Z,18.54
2019-05-21T12:00:57.002Z,18.22
2019-05-21T12:03:28.406Z,18.18
2019-05-21T12:05:59.896Z,17.88
2019-05-21T12:08:32.046Z,17.72
2019-05-21T12:11:05.530Z,17.67
2019-05-21T12:13:37.582Z,18.04
2019-05-21T12:16:09.884Z,17.61
2019-05-21T12:18:43.560Z,17.64
2019-05-21T12:21:18.572Z,17.79
2019-05-21T12:23:52.704Z,17.87
2019-05-21T12:26:27.613Z,17.62
2019-05-21T12:29:01.675Z,17.77
2019-05-21T12:31:34.579Z,17.99
2019-05-21T12:34:07.745Z,17.86
2019-05-21T12:36:41.388Z,17.72
2019-05-21T12:39:16.857Z,17.75
2019-05-21T12:41:48.983Z,17.74
2019-05-21T12:44:27.434Z,17.48
2019-05-21T12:47:02.474Z,17.46
2019-05-21T12:49:37.592Z,17.43
2019-05-21T12:52:09.822Z,17.61
2019-05-21T12:54:42.846Z,17.98
2019-05-21T12:57:14.662Z,17.96
2019-05-21T12:59:48.663Z,17.95
2019-05-21T13:02:22.562Z,17.94
2019-05-21T13:04:54.936Z,17.67
2019-05-21T13:07:30.009Z,17.81
2019-05-21T13:10:15.169Z,17.69
2019-05-21T13:12:50.801Z,17.81
2019-05-21T13:15:27.173Z,17.12
2019-05-21T13:17:58.818Z,17.91
2019-05-21T13:20:34.625Z,17.85
2019-05-21T13:23:09.560Z,17.95
2019-05-21T13:25:43.020Z,17.55
2019-05-21T13:28:18.276Z,17.86
2019-05-21T13:30:56.036Z,17.92
2019-05-21T13:33:29.301Z,18.04
2019-05-21T13:36:03.971Z,17.82
2019-05-21T13:38:36.985Z,17.77
2019-05-21T13:41:08.588Z,17.78
2019-05-21T13:43:41.646Z,17.89
2019-05-21T13:46:15.233Z,17.88
2019-05-21T13:48:49.463Z,17.58
2019-05-21T13:51:24.775Z,17.85
2019-05-21T13:53:58.625Z,17.98
2019-05-21T13:56:32.698Z,17.94
2019-05-21T13:59:08.034Z,17.86
2019-05-21T14:01:42.921Z,17.75
2019-05-21T14:04:17.418Z,17.67
2019-05-21T14:06:51.793Z,17.56
2019-05-21T14:09:23.049Z,17.87
2019-05-21T14:11:58.308Z,17.74
2019-05-21T14:14:30.314Z,17.51
2019-05-21T14:17:04.417Z,17.47
2019-05-21T14:19:36.347Z,17.68
2019-05-21T14:22:10.445Z,17.48
2019-05-21T14:24:42.548Z,17.75
2019-05-21T14:27:14.429Z,17.70
2019-05-21T14:29:48.021Z,17.48
2019-05-21T14:32:23.767Z,17.53
2019-05-21T14:35:01.464Z,17.18
2019-05-21T14:37:30.400Z,17.15
2019-05-21T14:40:30.335Z,17.42
2019-05-21T14:43:00.082Z,17.05
2019-05-21T14:45:29.963Z,17.11
2019-05-21T14:48:05.246Z,17.08
2019-05-21T14:50:37.569Z,17.05
2019-05-21T14:53:09.817Z,17.24
2019-05-21T14:55:45.082Z,17.32
2019-05-21T14:58:16.382Z,17.33
2019-05-21T15:00:49.154Z,17.08
2019-05-21T15:03:25.162Z,16.14
2019-05-21T15:05:56.515Z,17.02
2019-05-21T15:08:28.686Z,17.17
2019-05-21T15:11:03.324Z,16.97
2019-05-21T15:13:37.724Z,16.92
2019-05-21T15:16:09.981Z,17.05
2019-05-21T15:18:52.454Z,17.15
2019-05-21T15:21:34.141Z,17.14
2019-05-21T15:24:07.620Z,16.35
2019-05-21T15:26:42.488Z,17.14
2019-05-21T15:29:25.825Z,17.28
2019-05-21T15:31:59.994Z,17.46
2019-05-21T15:34:35.800Z,17.49
2019-05-21T15:37:07.801Z,17.51
2019-05-21T15:39:41.441Z,17.44
2019-05-21T15:42:13.583Z,17.38
2019-05-21T15:44:49.593Z,17.16
2019-05-21T15:47:25.130Z,17.14
2019-05-21T15:49:58.468Z,17.24
2019-05-21T15:52:30.858Z,17.53
2019-05-21T15:55:06.716Z,17.46
2019-05-21T15:57:44.285Z,17.24
2019-05-21T16:00:20.165Z,17.26
2019-05-21T16:02:52.624Z,17.31
2019-05-21T16:05:27.146Z,17.31
2019-05-21T16:07:59.034Z,17.26
2019-05-21T16:10:36.744Z,17.47
2019-05-21T16:13:08.598Z,17.39
2019-05-21T16:15:46.671Z,17.54
2019-05-21T16:18:20.187Z,17.36
2019-05-21T16:20:52.699Z,17.26
2019-05-21T16:23:25.709Z,17.42
2019-05-21T16:25:58.909Z,17.40
2019-05-21T16:28:31.667Z,17.47
2019-05-21T16:31:05.611Z,17.42
2019-05-21T16:33:39.050Z,17.42
2019-05-21T16:36:10.384Z,17.12
2019-05-21T16:38:44.177Z,17.14
2019-05-21T16:41:15.717Z,17.18
2019-05-21T16:43:50.602Z,17.16
2019-05-21T16:46:22.961Z,17.27
2019-05-21T16:48:55.951Z,17.29
2019-05-21T16:51:31.607Z,17.05
2019-05-21T16:54:04.852Z,17.00
2019-05-21T16:56:38.245Z,16.93
2019-05-21T16:59:10.047Z,16.84
2019-05-21T17:01:44.585Z,16.79
2019-05-21T17:04:15.884Z,16.85
2019-05-21T17:06:50.890Z,16.75
2019-05-21T17:09:28.122Z,16.50
2019-05-21T17:12:00.286Z,16.52
2019-05-21T17:14:33.211Z,16.48
2019-05-21T17:17:07.473Z,16.41
2019-05-21T17:19:40.120Z,16.39
2019-05-21T17:22:13.356Z,16.35
2019-05-21T17:24:46.131Z,16.37
2019-05-21T17:27:21.582Z,16.33
2019-05-21T17:29:55.992Z,16.38
2019-05-21T17:32:30.224Z,16.41
2019-05-21T17:35:13.095Z,16.28
2019-05-21T17:37:44.403Z,16.31
2019-05-21T17:40:29.722Z,16.22
2019-05-21T17:43:03.011Z,16.20
2019-05-21T17:45:35.142Z,15.91
2019-05-21T17:48:07.506Z,15.76
2019-05-21T17:50:44.956Z,15.73
2019-05-21T17:53:17.846Z,15.66
2019-05-21T17:56:00.898Z,15.60
2019-05-21T17:58:34.304Z,15.60
2019-05-21T18:01:10.133Z,15.60
2019-05-21T18:03:44.186Z,15.60
2019-05-21T18:06:20.271Z,15.57
2019-05-21T18:08:54.262Z,15.54
2019-05-21T18:11:30.030Z,15.55
2019-05-21T18:14:04.206Z,15.56
2019-05-21T18:16:38.643Z,15.51
2019-05-21T18:19:09.973Z,15.31
2019-05-21T18:21:43.490Z,15.51
2019-05-21T18:24:16.705Z,15.43
2019-05-21T18:26:49.444Z,15.43
2019-05-21T18:29:22.412Z,15.45
2019-05-21T18:31:55.405Z,15.41
2019-05-21T18:34:28.812Z,15.36
2019-05-21T18:37:06.435Z,15.32
2019-05-21T18:39:39.679Z,15.35
2019-05-21T18:42:21.676Z,15.30
2019-05-21T18:44:47.490Z,15.25
2019-05-21T18:47:21.672Z,15.25
2019-05-21T18:49:55.228Z,15.24
2019-05-21T18:52:28.446Z,15.25
2019-05-21T18:55:12.799Z,15.21
2019-05-21T18:57:46.804Z,15.26
2019-05-21T19:00:23.794Z,15.30
2019-05-21T19:02:57.554Z,15.34
2019-05-21T19:05:28.787Z,15.39
2019-05-21T19:08:03.199Z,15.43
2019-05-21T19:10:36.625Z,15.47
2019-05-21T19:13:09.003Z,15.52
2019-05-21T19:15:40.220Z,15.53
2019-05-21T19:18:13.653Z,15.56
2019-05-21T19:20:50.086Z,15.64
2019-05-21T19:23:22.638Z,15.68
2019-05-21T19:25:56.387Z,15.64
2019-05-21T19:28:29.441Z,15.63
2019-05-21T19:31:03.553Z,15.72
2019-05-21T19:33:39.303Z,15.71
2019-05-21T19:36:12.193Z,15.67
2019-05-21T19:38:48.457Z,15.61
2019-05-21T19:41:22.573Z,15.57
2019-05-21T19:43:56.735Z,14.94
2019-05-21T19:46:28.574Z,15.56
2019-05-21T19:49:02.774Z,15.42
2019-05-21T19:51:36.242Z,15.43
2019-05-21T19:54:09.670Z,15.35
2019-05-21T19:56:45.539Z,15.31
2019-05-21T19:59:22.591Z,15.31
2019-05-21T20:01:53.787Z,15.21
2019-05-21T20:04:40.342Z,15.22
2019-05-21T20:07:16.111Z,15.14
2019-05-21T20:09:53.087Z,15.08
2019-05-21T20:12:47.208Z,15.10
2019-05-21T20:15:22.642Z,12.54
2019-05-21T20:18:07.076Z,15.11
2019-05-21T20:20:37.969Z,15.15
2019-05-21T20:23:13.889Z,15.10
2019-05-21T20:25:56.437Z,15.14
2019-05-21T20:28:24.265Z,15.11
2019-05-21T20:30:59.422Z,15.11
2019-05-21T20:33:32.347Z,15.12
2019-05-21T20:36:06.410Z,15.19
2019-05-21T20:38:40.146Z,15.19
2019-05-21T20:41:22.966Z,15.20
2019-05-21T20:43:59.637Z,15.18
2019-05-21T20:46:36.064Z,15.23
2019-05-21T20:49:08.384Z,15.19
2019-05-21T20:51:44.233Z,15.20
2019-05-21T20:54:18.474Z,15.21
2019-05-21T20:56:51.986Z,15.24
2019-05-21T20:59:23.425Z,15.28
2019-05-21T21:01:58.334Z,15.34
2019-05-21T21:04:31.283Z,15.39
2019-05-21T21:07:05.229Z,15.37
2019-05-21T21:09:39.147Z,15.34
2019-05-21T21:12:11.809Z,15.36
2019-05-21T21:14:48.707Z,15.38
2019-05-21T21:17:23.288Z,15.40
2019-05-21T21:19:59.171Z,15.43
2019-05-21T21:22:42.530Z,15.43
2019-05-21T21:25:21.932Z,15.44
2019-05-21T21:27:54.868Z,15.52
2019-05-21T21:30:26.640Z,15.42
2019-05-21T21:33:04.549Z,15.45
2019-05-21T21:35:38.371Z,15.50
2019-05-21T21:38:13.681Z,15.43
2019-05-21T21:40:47.746Z,15.34
2019-05-21T21:43:22.483Z,15.28
2019-05-21T21:45:54.768Z,15.18
2019-05-21T21:48:27.654Z,15.15
2019-05-21T21:51:02.643Z,15.14
2019-05-21T21:53:36.064Z,15.12
2019-05-21T21:56:10.811Z,15.10
2019-05-21T21:58:44.071Z,15.07
2019-05-21T22:01:46.150Z,15.17
2019-05-21T22:04:25.976Z,15.08
2019-05-21T22:06:59.396Z,15.20
2019-05-21T22:09:34.927Z,15.21
2019-05-21T22:12:10.336Z,15.11
2019-05-21T22:14:51.643Z,15.13
2019-05-21T22:17:18.198Z,15.08
2019-05-21T22:19:53.265Z,15.06
2019-05-21T22:22:28.104Z,15.00
2019-05-21T22:24:59.432Z,15.07
2019-05-21T22:27:42.808Z,15.05
2019-05-21T22:30:19.104Z,15.01
2019-05-21T22:32:50.485Z,14.96
2019-05-21T22:35:22.583Z,14.91
2019-05-21T22:37:55.583Z,14.96
2019-05-21T22:40:29.478Z,15.00
2019-05-21T22:43:02.873Z,14.86
2019-05-21T22:45:37.398Z,15.00
2019-05-21T22:48:16.720Z,14.94
2019-05-21T22:50:50.753Z,14.87
2019-05-21T22:53:32.747Z,14.84
2019-05-21T22:56:06.183Z,14.83
2019-05-21T22:58:41.635Z,14.82
2019-05-21T23:01:17.427Z,14.78
2019-05-21T23:03:49.658Z,14.76
2019-05-21T23:06:24.854Z,14.72
2019-05-21T23:08:58.733Z,14.71
2019-05-21T23:11:30.194Z,14.75
2019-05-21T23:14:01.624Z,14.73
2019-05-21T23:16:33.983Z,14.78
2019-05-21T23:19:08.878Z,14.82
2019-05-21T23:21:41.383Z,14.76
2019-05-21T23:24:16.892Z,14.81
2019-05-21T23:26:51.346Z,14.76
2019-05-21T23:29:24.195Z,14.77
2019-05-21T23:31:58.454Z,14.83
2019-05-21T23:34:31.436Z,14.71
2019-05-21T23:37:09.195Z,14.73
2019-05-21T23:39:45.808Z,14.72
2019-05-21T23:42:29.452Z,14.73
2019-05-21T23:45:01.063Z,14.74
2019-05-21T23:47:45.877Z,14.76
2019-05-21T23:50:20.619Z,14.77
2019-05-21T23:52:53.930Z,14.76
2019-05-21T23:55:25.650Z,14.82
2019-05-21T23:58:00.791Z,14.88
